Terminal Aerodrome Forecast
Issued by NWS

Home | Current Version | Previous Version | Text Only | Print | Product List | Glossary On
Versions: 1 2 3 4 5 6 7 8 9 10 11 12 13 14
000
FTUS44 KLIX 011134
TAFGPT
TAF
KGPT 011134Z 0112/0212 01005KT P6SM SKC
     FM011300 02007KT P6SM FEW250
     FM011900 09006KT P6SM SCT250
     FM012100 16006KT P6SM SCT250
     FM020300 00000KT P6SM SCT250=

USA.gov is the U.S. government's official web portal to all federal, state and local government web resources and services.